createdAt,value
2018-11-11T00:02:11.620Z,8.00
2018-11-11T00:04:39.812Z,8.00
2018-11-11T00:07:07.931Z,8.00
2018-11-11T00:09:36.103Z,8.00
2018-11-11T00:12:04.507Z,8.00
2018-11-11T00:14:32.707Z,8.00
2018-11-11T00:17:00.917Z,8.00
2018-11-11T00:19:29.060Z,8.00
2018-11-11T00:21:57.238Z,8.00
2018-11-11T00:24:25.377Z,8.00
2018-11-11T00:26:53.569Z,8.00
2018-11-11T00:29:21.804Z,8.00
2018-11-11T00:31:50.028Z,8.00
2018-11-11T00:34:18.177Z,8.00
2018-11-11T00:36:46.325Z,8.00
2018-11-11T00:39:14.516Z,8.00
2018-11-11T00:41:42.672Z,7.90
2018-11-11T00:44:10.847Z,7.90
2018-11-11T00:46:38.927Z,7.90
2018-11-11T00:49:07.604Z,8.00
2018-11-11T00:51:35.889Z,8.00
2018-11-11T00:54:13.738Z,7.90
2018-11-11T00:56:41.882Z,8.00
2018-11-11T00:59:10.060Z,8.00
2018-11-11T01:01:38.211Z,8.00
2018-11-11T01:04:06.467Z,8.00
2018-11-11T01:06:34.596Z,8.00
2018-11-11T01:09:02.795Z,8.00
2018-11-11T01:11:30.943Z,8.00
2018-11-11T01:13:59.089Z,8.00
2018-11-11T01:16:27.291Z,8.10
2018-11-11T01:18:55.435Z,8.00
2018-11-11T01:21:23.624Z,8.00
2018-11-11T01:24:54.847Z,8.00
2018-11-11T01:27:22.963Z,8.00
2018-11-11T01:29:51.165Z,7.90
2018-11-11T01:32:19.275Z,7.90
2018-11-11T01:34:47.419Z,7.90
2018-11-11T01:37:15.549Z,7.80
2018-11-11T01:39:43.714Z,7.90
2018-11-11T01:42:11.911Z,7.90
2018-11-11T01:44:40.096Z,7.80
2018-11-11T01:47:08.257Z,7.90
2018-11-11T01:49:36.417Z,7.80
2018-11-11T01:52:04.993Z,7.80
2018-11-11T01:54:33.175Z,7.80
2018-11-11T01:57:01.373Z,7.90
2018-11-11T01:59:29.524Z,7.80
2018-11-11T02:01:57.697Z,7.70
2018-11-11T02:04:25.876Z,7.80
2018-11-11T02:06:54.041Z,7.80
2018-11-11T02:09:22.212Z,7.80
2018-11-11T02:11:50.394Z,7.70
2018-11-11T02:14:18.550Z,7.70
2018-11-11T02:16:46.770Z,7.70
2018-11-11T02:19:14.907Z,7.50
2018-11-11T02:21:43.160Z,7.00
2018-11-11T02:24:11.248Z,6.50
2018-11-11T02:26:39.344Z,6.20
2018-11-11T02:29:07.491Z,5.90
2018-11-11T02:31:35.612Z,5.80
2018-11-11T02:34:03.806Z,5.60
2018-11-11T02:36:31.968Z,5.40
2018-11-11T02:39:00.116Z,5.30
2018-11-11T02:41:28.259Z,5.20
2018-11-11T02:43:56.443Z,5.00
2018-11-11T02:46:24.666Z,5.00
2018-11-11T02:48:52.800Z,4.90
2018-11-11T02:51:20.971Z,4.80
2018-11-11T02:53:49.132Z,4.80
2018-11-11T02:56:17.239Z,4.70
2018-11-11T02:58:45.829Z,4.70
2018-11-11T03:01:13.969Z,4.60
2018-11-11T03:03:42.140Z,4.60
2018-11-11T03:06:10.327Z,4.60
2018-11-11T03:08:38.496Z,4.50
2018-11-11T03:11:06.715Z,4.50
2018-11-11T03:13:34.888Z,4.60
2018-11-11T03:16:03.407Z,4.60
2018-11-11T03:18:31.521Z,4.50
2018-11-11T03:20:59.679Z,4.50
2018-11-11T03:23:28.123Z,4.50
2018-11-11T03:25:56.221Z,4.40
2018-11-11T03:28:24.294Z,4.50
2018-11-11T03:30:52.371Z,4.40
2018-11-11T03:33:20.554Z,4.20
2018-11-11T03:35:48.754Z,4.30
2018-11-11T03:38:16.974Z,4.30
2018-11-11T03:40:45.123Z,4.30
2018-11-11T03:43:13.255Z,4.30
2018-11-11T03:45:41.421Z,4.40
2018-11-11T03:48:09.607Z,4.60
2018-11-11T03:50:37.791Z,4.50
2018-11-11T03:53:05.999Z,4.50
2018-11-11T03:55:34.117Z,4.50
2018-11-11T03:58:02.343Z,4.60
2018-11-11T04:00:30.492Z,4.60
2018-11-11T04:02:58.643Z,4.50
2018-11-11T04:05:26.833Z,4.60
2018-11-11T04:07:54.989Z,4.50
2018-11-11T04:10:23.303Z,4.70
2018-11-11T04:12:51.355Z,4.80
2018-11-11T04:15:20.091Z,5.00
2018-11-11T04:17:48.500Z,5.20
2018-11-11T04:20:18.840Z,5.40
2018-11-11T04:22:47.028Z,5.40
2018-11-11T04:25:15.877Z,5.20
2018-11-11T04:27:43.980Z,5.00
2018-11-11T04:30:13.268Z,5.10
2018-11-11T04:32:41.947Z,5.10
2018-11-11T04:35:10.104Z,5.10
2018-11-11T04:37:38.198Z,4.90
2018-11-11T04:40:08.581Z,4.70
2018-11-11T04:42:36.787Z,4.50
2018-11-11T04:45:06.147Z,4.40
2018-11-11T04:47:34.265Z,4.50
2018-11-11T04:50:02.689Z,4.70
2018-11-11T04:52:30.820Z,4.90
2018-11-11T04:54:58.936Z,5.10
2018-11-11T04:57:27.058Z,5.10
2018-11-11T04:59:55.163Z,5.20
2018-11-11T05:02:23.327Z,5.10
2018-11-11T05:04:51.523Z,5.10
2018-11-11T05:07:19.665Z,5.40
2018-11-11T05:09:47.788Z,5.70
2018-11-11T05:12:15.945Z,5.80
2018-11-11T05:14:44.083Z,5.90
2018-11-11T05:17:12.174Z,6.10
2018-11-11T05:19:40.451Z,6.30
2018-11-11T05:22:08.672Z,6.20
2018-11-11T05:24:37.095Z,6.30
2018-11-11T05:27:05.187Z,6.40
2018-11-11T05:29:33.348Z,6.40
2018-11-11T05:32:01.511Z,6.40
2018-11-11T05:34:29.607Z,6.50
2018-11-11T05:36:57.804Z,6.50
2018-11-11T05:39:26.114Z,6.50
2018-11-11T05:41:54.237Z,6.60
2018-11-11T05:44:22.388Z,6.80
2018-11-11T05:46:50.470Z,6.90
2018-11-11T05:49:18.642Z,7.00
2018-11-11T05:51:46.811Z,7.00
2018-11-11T05:54:14.990Z,7.10
2018-11-11T05:56:43.076Z,7.10
2018-11-11T05:59:11.268Z,7.10
2018-11-11T06:01:39.431Z,7.10
2018-11-11T06:04:07.648Z,7.10
2018-11-11T06:06:35.795Z,7.10
2018-11-11T06:09:05.509Z,7.10
2018-11-11T06:11:33.652Z,7.20
2018-11-11T06:14:01.836Z,7.20
2018-11-11T06:16:29.915Z,7.20
2018-11-11T06:18:58.052Z,7.20
2018-11-11T06:21:26.249Z,7.20
2018-11-11T06:23:54.440Z,7.10
2018-11-11T06:26:22.600Z,7.10
2018-11-11T06:28:50.765Z,7.10
2018-11-11T06:31:18.957Z,7.20
2018-11-11T06:33:47.109Z,7.20
2018-11-11T06:36:15.201Z,7.30
2018-11-11T06:38:43.367Z,7.30
2018-11-11T06:41:11.564Z,7.30
2018-11-11T06:43:39.714Z,7.40
2018-11-11T06:46:07.921Z,7.40
2018-11-11T06:48:36.062Z,7.50
2018-11-11T06:51:04.222Z,7.50
2018-11-11T06:53:32.433Z,7.60
2018-11-11T06:56:01.185Z,7.70
2018-11-11T06:58:29.320Z,7.70
2018-11-11T07:00:57.474Z,7.80
2018-11-11T07:03:37.007Z,7.90
2018-11-11T07:06:05.562Z,8.00
2018-11-11T07:08:33.819Z,8.10
2018-11-11T07:11:01.985Z,8.20
2018-11-11T07:13:30.110Z,8.30
2018-11-11T07:15:58.278Z,8.40
2018-11-11T07:18:26.476Z,8.40
2018-11-11T07:20:54.644Z,8.50
2018-11-11T07:23:22.804Z,8.50
2018-11-11T07:25:50.969Z,8.40
2018-11-11T07:28:19.163Z,8.50
2018-11-11T07:30:47.343Z,8.50
2018-11-11T07:33:15.500Z,8.60
2018-11-11T07:35:43.665Z,8.60
2018-11-11T07:38:11.832Z,8.70
2018-11-11T07:40:40.023Z,8.80
2018-11-11T07:43:08.199Z,8.80
2018-11-11T07:45:36.393Z,8.80
2018-11-11T07:48:05.127Z,8.90
2018-11-11T07:50:33.240Z,8.90
2018-11-11T07:53:01.390Z,8.90
2018-11-11T07:55:29.597Z,9.00
2018-11-11T07:57:57.735Z,9.00
2018-11-11T08:00:25.940Z,9.10
2018-11-11T08:02:54.075Z,9.10
2018-11-11T08:05:22.174Z,9.20
2018-11-11T08:07:50.357Z,9.30
2018-11-11T08:10:30.064Z,9.40
2018-11-11T08:12:58.211Z,9.40
2018-11-11T08:15:26.345Z,9.50
2018-11-11T08:17:54.620Z,9.50
2018-11-11T08:22:55.623Z,9.50
2018-11-11T08:25:23.838Z,9.60
2018-11-11T08:27:51.961Z,9.60
2018-11-11T08:30:20.123Z,9.60
2018-11-11T08:32:48.412Z,9.60
2018-11-11T08:35:16.615Z,9.80
2018-11-11T08:37:44.776Z,9.90
2018-11-11T08:40:12.882Z,9.90
2018-11-11T08:42:41.131Z,10.00
2018-11-11T08:45:11.911Z,10.00
2018-11-11T08:47:40.218Z,10.00
2018-11-11T08:50:09.095Z,10.20
2018-11-11T08:52:38.307Z,10.00
2018-11-11T08:55:06.488Z,10.50
2018-11-11T08:57:34.728Z,10.50
2018-11-11T09:00:02.932Z,10.50
2018-11-11T09:02:31.139Z,10.40
2018-11-11T09:04:59.457Z,10.40
2018-11-11T09:07:27.722Z,10.30
2018-11-11T09:09:55.924Z,10.30
2018-11-11T09:12:24.080Z,10.40
2018-11-11T09:14:52.275Z,10.30
2018-11-11T09:17:20.522Z,10.40
2018-11-11T09:19:48.747Z,10.40
2018-11-11T09:22:16.924Z,10.40
2018-11-11T09:24:45.121Z,10.40
2018-11-11T09:27:13.304Z,10.30
2018-11-11T09:29:41.411Z,10.50
2018-11-11T09:32:09.617Z,10.50
2018-11-11T09:34:37.799Z,10.50
2018-11-11T09:37:06.209Z,10.60
2018-11-11T09:39:34.500Z,10.80
2018-11-11T09:42:03.773Z,10.80
2018-11-11T09:44:31.909Z,11.00
2018-11-11T09:47:00.244Z,11.50
2018-11-11T09:49:28.344Z,12.30
2018-11-11T09:51:56.544Z,13.10
2018-11-11T09:54:25.737Z,13.40
2018-11-11T09:56:54.035Z,14.10
2018-11-11T09:59:22.387Z,14.80
2018-11-11T10:01:51.055Z,15.10
2018-11-11T10:04:30.267Z,15.20
2018-11-11T10:07:03.823Z,15.20
2018-11-11T10:09:40.088Z,14.80
2018-11-11T10:13:28.301Z,15.20
2018-11-11T10:16:02.074Z,15.20
2018-11-11T10:18:34.049Z,13.90
2018-11-11T10:21:21.585Z,13.40
2018-11-11T10:24:25.718Z,13.50
2018-11-11T10:26:59.437Z,13.90
2018-11-11T10:29:35.973Z,15.20
2018-11-11T10:32:18.341Z,15.20
2018-11-11T10:34:52.600Z,14.30
2018-11-11T10:38:26.250Z,13.60
2018-11-11T10:40:58.084Z,13.30
2018-11-11T10:43:36.104Z,12.80
2018-11-11T10:46:38.588Z,12.70
2018-11-11T10:49:08.708Z,12.50
2018-11-11T10:51:37.144Z,12.20
2018-11-11T10:54:05.928Z,12.00
2018-11-11T10:59:01.209Z,11.80
2018-11-11T11:01:34.838Z,11.60
2018-11-11T11:04:03.319Z,11.60
2018-11-11T11:06:36.938Z,11.50
2018-11-11T11:09:08.089Z,11.60
2018-11-11T11:11:36.327Z,11.60
2018-11-11T11:14:04.485Z,11.50
2018-11-11T11:16:32.664Z,11.40
2018-11-11T11:19:00.812Z,11.40
2018-11-11T11:21:29.011Z,11.40
2018-11-11T11:23:57.171Z,11.40
2018-11-11T11:26:25.419Z,11.50
2018-11-11T11:28:53.624Z,11.60
2018-11-11T11:31:21.811Z,11.60
2018-11-11T11:33:49.970Z,11.50
2018-11-11T11:36:18.144Z,11.60
2018-11-11T11:38:46.363Z,11.60
2018-11-11T11:41:14.516Z,11.60
2018-11-11T11:43:42.663Z,11.70
2018-11-11T11:46:11.839Z,11.80
2018-11-11T11:48:40.074Z,11.80
2018-11-11T11:51:08.224Z,11.80
2018-11-11T11:53:36.432Z,11.90
2018-11-11T11:56:04.595Z,12.10
2018-11-11T11:58:32.914Z,12.10
2018-11-11T12:01:01.137Z,12.20
2018-11-11T12:03:29.323Z,12.20
2018-11-11T12:05:57.507Z,12.20
2018-11-11T12:08:25.703Z,12.40
2018-11-11T12:10:53.832Z,12.80
2018-11-11T12:13:21.990Z,13.20
2018-11-11T12:15:50.180Z,13.40
2018-11-11T12:18:20.327Z,13.40
2018-11-11T12:20:48.435Z,13.30
2018-11-11T12:23:16.680Z,14.50
2018-11-11T12:25:44.861Z,15.90
2018-11-11T12:28:13.000Z,16.30
2018-11-11T12:30:42.566Z,16.90
2018-11-11T12:33:11.942Z,17.50
2018-11-11T12:35:40.140Z,16.50
2018-11-11T12:38:08.422Z,15.20
2018-11-11T12:40:36.615Z,15.60
2018-11-11T12:43:04.840Z,16.50
2018-11-11T12:45:33.048Z,17.20
2018-11-11T12:48:01.294Z,17.60
2018-11-11T12:50:29.682Z,17.90
2018-11-11T12:52:57.703Z,18.10
2018-11-11T12:55:25.902Z,18.00
2018-11-11T12:57:54.570Z,18.00
2018-11-11T13:00:23.032Z,17.50
2018-11-11T13:02:52.284Z,17.40
2018-11-11T13:05:20.809Z,17.40
2018-11-11T13:07:49.615Z,18.70
2018-11-11T13:10:18.765Z,19.10
2018-11-11T13:12:47.260Z,18.30
2018-11-11T13:15:15.942Z,18.40
2018-11-11T13:17:45.005Z,18.40
2018-11-11T13:20:15.294Z,18.20
2018-11-11T13:22:44.368Z,18.00
2018-11-11T13:25:14.090Z,18.00
2018-11-11T13:27:43.006Z,17.70
2018-11-11T13:30:13.010Z,18.00
2018-11-11T13:32:43.109Z,17.40
2018-11-11T13:35:14.564Z,17.50
2018-11-11T13:37:43.545Z,17.20
2018-11-11T13:40:16.228Z,17.40
2018-11-11T13:42:45.230Z,17.00
2018-11-11T13:45:17.321Z,17.40
2018-11-11T13:47:46.976Z,17.70
2018-11-11T13:50:18.157Z,17.90
2018-11-11T13:52:47.254Z,17.60
2018-11-11T13:55:16.431Z,17.10
2018-11-11T13:57:45.618Z,16.70
2018-11-11T14:00:17.609Z,16.50
2018-11-11T14:02:46.172Z,16.50
2018-11-11T14:05:14.872Z,16.00
2018-11-11T14:07:45.471Z,15.10
2018-11-11T14:10:14.651Z,14.90
2018-11-11T14:12:42.818Z,14.30
2018-11-11T14:15:14.332Z,14.00
2018-11-11T14:17:43.400Z,13.90
2018-11-11T14:20:13.922Z,13.80
2018-11-11T14:22:44.664Z,13.70
2018-11-11T14:25:15.442Z,13.70
2018-11-11T14:27:43.912Z,13.70
2018-11-11T14:30:14.570Z,13.50
2018-11-11T14:32:42.853Z,13.40
2018-11-11T14:35:11.617Z,13.40
2018-11-11T14:37:39.885Z,13.40
2018-11-11T14:40:11.922Z,13.30
2018-11-11T14:42:40.287Z,13.20
2018-11-11T14:45:09.374Z,13.20
2018-11-11T14:47:37.697Z,13.20
2018-11-11T14:50:06.769Z,13.10
2018-11-11T14:52:34.910Z,13.00
2018-11-11T14:55:03.103Z,13.00
2018-11-11T14:57:31.298Z,12.90
2018-11-11T15:00:00.115Z,12.80
2018-11-11T15:02:28.401Z,12.70
2018-11-11T15:04:57.513Z,12.60
2018-11-11T15:07:25.808Z,12.50
2018-11-11T15:09:53.959Z,12.40
2018-11-11T15:12:22.172Z,12.30
2018-11-11T15:14:50.324Z,12.20
2018-11-11T15:17:18.499Z,12.20
2018-11-11T15:19:46.696Z,12.20
2018-11-11T15:22:15.053Z,12.20
2018-11-11T15:24:43.239Z,12.20
2018-11-11T15:27:11.736Z,12.10
2018-11-11T15:29:39.936Z,11.90
2018-11-11T15:32:08.092Z,11.70
2018-11-11T15:34:36.247Z,11.60
2018-11-11T15:37:04.668Z,11.50
2018-11-11T15:39:33.066Z,11.40
2018-11-11T15:42:01.837Z,11.40
2018-11-11T15:44:29.976Z,11.50
2018-11-11T15:46:58.147Z,11.40
2018-11-11T15:49:26.272Z,11.40
2018-11-11T15:51:54.637Z,11.30
2018-11-11T15:54:22.856Z,11.30
2018-11-11T15:56:51.032Z,11.30
2018-11-11T15:59:19.334Z,11.30
2018-11-11T16:01:47.461Z,11.30
2018-11-11T16:04:15.694Z,11.20
2018-11-11T16:06:43.835Z,11.30
2018-11-11T16:09:12.004Z,11.20
2018-11-11T16:11:40.351Z,11.30
2018-11-11T16:14:08.614Z,11.30
2018-11-11T16:16:36.712Z,11.20
2018-11-11T16:19:04.961Z,10.90
2018-11-11T16:21:33.076Z,10.70
2018-11-11T16:24:01.242Z,10.60
2018-11-11T16:26:29.403Z,10.50
2018-11-11T16:28:57.608Z,10.50
2018-11-11T16:31:25.803Z,10.50
2018-11-11T16:33:53.965Z,10.50
2018-11-11T16:36:22.124Z,10.40
2018-11-11T16:38:50.443Z,10.40
2018-11-11T16:41:18.677Z,10.30
2018-11-11T16:43:46.814Z,10.20
2018-11-11T16:46:15.000Z,10.10
2018-11-11T16:48:43.485Z,10.00
2018-11-11T16:51:11.678Z,10.00
2018-11-11T16:53:39.936Z,10.10
2018-11-11T16:56:08.107Z,10.20
2018-11-11T16:58:36.284Z,10.10
2018-11-11T17:01:04.755Z,10.10
2018-11-11T17:03:32.963Z,10.10
2018-11-11T17:06:01.137Z,10.10
2018-11-11T17:08:29.314Z,10.10
2018-11-11T17:10:57.474Z,10.10
2018-11-11T17:13:25.709Z,10.10
2018-11-11T17:15:53.799Z,10.00
2018-11-11T17:18:22.124Z,9.90
2018-11-11T17:20:50.294Z,9.80
2018-11-11T17:23:18.480Z,9.70
2018-11-11T17:25:46.610Z,9.60
2018-11-11T17:28:15.417Z,9.70
2018-11-11T17:30:43.633Z,9.90
2018-11-11T17:33:11.746Z,9.80
2018-11-11T17:35:42.864Z,9.80
2018-11-11T17:38:11.119Z,9.80
2018-11-11T17:40:39.258Z,9.90
2018-11-11T17:43:07.481Z,9.90
2018-11-11T17:45:35.641Z,9.90
2018-11-11T17:48:03.912Z,9.90
2018-11-11T17:50:33.148Z,9.80
2018-11-11T17:53:02.637Z,9.90
2018-11-11T17:55:31.029Z,9.90
2018-11-11T17:57:59.302Z,9.90
2018-11-11T18:00:28.622Z,9.90
2018-11-11T18:02:57.482Z,9.90
2018-11-11T18:05:26.613Z,9.90
2018-11-11T18:07:54.936Z,9.90
2018-11-11T18:10:23.916Z,9.90
2018-11-11T18:12:52.194Z,9.80
2018-11-11T18:15:21.874Z,9.80
2018-11-11T18:17:50.202Z,9.70
2018-11-11T18:20:21.771Z,9.70
2018-11-11T18:22:50.746Z,9.70
2018-11-11T18:25:18.998Z,9.60
2018-11-11T18:27:47.262Z,9.70
2018-11-11T18:30:19.901Z,9.60
2018-11-11T18:32:48.108Z,9.60
2018-11-11T18:35:16.973Z,9.60
2018-11-11T18:37:45.252Z,9.60
2018-11-11T18:40:14.621Z,9.50
2018-11-11T18:42:42.812Z,9.50
2018-11-11T18:45:14.826Z,9.50
2018-11-11T18:47:43.160Z,9.50
2018-11-11T18:50:13.857Z,9.50
2018-11-11T18:52:42.096Z,9.40
2018-11-11T18:55:10.932Z,9.40
2018-11-11T18:57:39.484Z,9.50
2018-11-11T19:00:10.862Z,9.40
2018-11-11T19:02:39.014Z,9.40
2018-11-11T19:05:08.588Z,9.40
2018-11-11T19:07:36.918Z,9.40
2018-11-11T19:10:06.179Z,9.40
2018-11-11T19:12:34.387Z,9.30
2018-11-11T19:15:02.609Z,9.30
2018-11-11T19:17:31.142Z,9.30
2018-11-11T19:19:59.447Z,9.30
2018-11-11T19:22:27.859Z,9.30
2018-11-11T19:24:56.141Z,9.30
2018-11-11T19:27:24.420Z,9.30
2018-11-11T19:29:52.757Z,9.30
2018-11-11T19:32:20.934Z,9.30
2018-11-11T19:34:49.177Z,9.30
2018-11-11T19:37:17.402Z,9.30
2018-11-11T19:39:45.578Z,9.40
2018-11-11T19:42:13.740Z,9.40
2018-11-11T19:44:41.866Z,9.40
2018-11-11T19:47:10.066Z,9.30
2018-11-11T19:49:38.239Z,9.30
2018-11-11T19:52:06.618Z,9.30
2018-11-11T19:54:34.776Z,9.30
2018-11-11T19:57:03.367Z,9.30
2018-11-11T19:59:31.584Z,9.30
2018-11-11T20:01:59.752Z,9.20
2018-11-11T20:04:28.004Z,9.10
2018-11-11T20:06:56.824Z,9.20
2018-11-11T20:09:25.020Z,9.10
2018-11-11T20:11:53.092Z,9.10
2018-11-11T20:14:21.359Z,9.10
2018-11-11T20:16:49.488Z,9.10
2018-11-11T20:19:17.659Z,9.10
2018-11-11T20:21:45.855Z,9.20
2018-11-11T20:24:14.137Z,9.20
2018-11-11T20:26:42.288Z,9.20
2018-11-11T20:29:10.517Z,9.30
2018-11-11T20:31:38.763Z,9.30
2018-11-11T20:34:06.893Z,9.30
2018-11-11T20:36:35.102Z,9.30
2018-11-11T20:39:03.836Z,9.20
2018-11-11T20:41:32.032Z,9.30
2018-11-11T20:44:00.496Z,9.30
2018-11-11T20:46:28.567Z,9.30
2018-11-11T20:48:56.649Z,9.30
2018-11-11T20:51:24.854Z,9.40
2018-11-11T20:53:53.120Z,9.40
2018-11-11T20:56:21.371Z,9.40
2018-11-11T20:58:49.480Z,9.50
2018-11-11T21:01:17.624Z,9.50
2018-11-11T21:03:45.882Z,9.50
2018-11-11T21:06:14.056Z,9.60
2018-11-11T21:08:42.170Z,9.70
2018-11-11T21:11:10.536Z,9.70
2018-11-11T21:13:38.688Z,9.70
2018-11-11T21:17:09.667Z,9.80
2018-11-11T21:19:37.903Z,9.70
2018-11-11T21:22:09.559Z,9.80
2018-11-11T21:24:37.747Z,9.90
2018-11-11T21:27:06.109Z,9.80
2018-11-11T21:29:34.223Z,9.80
2018-11-11T21:32:02.416Z,9.70
2018-11-11T21:34:30.603Z,9.70
2018-11-11T21:36:58.761Z,9.70
2018-11-11T21:39:26.917Z,9.80
2018-11-11T21:41:55.071Z,9.70
2018-11-11T21:44:23.333Z,9.60
2018-11-11T21:46:51.999Z,9.60
2018-11-11T21:49:22.263Z,9.50
2018-11-11T21:51:50.404Z,9.50
2018-11-11T21:54:18.483Z,9.50
2018-11-11T21:56:46.690Z,9.60
2018-11-11T21:59:14.769Z,9.50
2018-11-11T22:01:42.965Z,9.50
2018-11-11T22:04:11.160Z,9.40
2018-11-11T22:06:39.283Z,9.40
2018-11-11T22:09:08.798Z,9.40
2018-11-11T22:11:36.884Z,9.40
2018-11-11T22:14:05.411Z,9.50
2018-11-11T22:16:33.634Z,9.50
2018-11-11T22:19:01.833Z,9.50
2018-11-11T22:21:30.084Z,9.50
2018-11-11T22:23:58.237Z,9.60
2018-11-11T22:26:26.414Z,9.60
2018-11-11T22:28:54.676Z,9.50
2018-11-11T22:31:22.864Z,9.50
2018-11-11T22:33:51.051Z,9.50
2018-11-11T22:36:19.248Z,9.50
2018-11-11T22:38:47.427Z,9.50
2018-11-11T22:41:15.676Z,9.50
2018-11-11T22:43:43.882Z,9.50
2018-11-11T22:46:12.080Z,9.50
2018-11-11T22:48:40.608Z,9.50
2018-11-11T22:51:08.791Z,9.60
2018-11-11T22:53:36.988Z,9.60
2018-11-11T22:56:05.163Z,9.60
2018-11-11T22:58:33.317Z,9.60
2018-11-11T23:01:06.961Z,9.70
2018-11-11T23:03:35.136Z,9.60
2018-11-11T23:06:03.340Z,9.60
2018-11-11T23:08:31.432Z,9.60
2018-11-11T23:10:59.653Z,9.60
2018-11-11T23:13:27.780Z,9.60
2018-11-11T23:15:55.948Z,9.60
2018-11-11T23:18:24.111Z,9.60
2018-11-11T23:20:52.182Z,9.50
2018-11-11T23:23:20.488Z,9.50
2018-11-11T23:25:48.622Z,9.50
2018-11-11T23:28:16.715Z,9.40
2018-11-11T23:30:44.919Z,9.40
2018-11-11T23:33:13.113Z,9.30
2018-11-11T23:35:41.235Z,9.30
2018-11-11T23:38:09.400Z,9.30
2018-11-11T23:40:37.500Z,9.20
2018-11-11T23:43:05.688Z,9.20
2018-11-11T23:45:33.844Z,9.10
2018-11-11T23:48:02.048Z,9.10
2018-11-11T23:50:30.180Z,9.00
2018-11-11T23:52:58.385Z,9.00
2018-11-11T23:55:26.523Z,9.00
2018-11-11T23:57:54.599Z,9.00
